sensor_id;sensor_type;location;lat;lon;timestamp;P1;durP1;ratioP1;P2;durP2;ratioP2
37895;SDS011;23733;53.254;10.430;2022-07-21T00:01:46;26.20;;;13.20;;
37895;SDS011;23733;53.254;10.430;2022-07-21T00:04:12;21.67;;;12.93;;
37895;SDS011;23733;53.254;10.430;2022-07-21T00:06:38;18.37;;;12.93;;
37895;SDS011;23733;53.254;10.430;2022-07-21T00:09:04;21.80;;;13.13;;
37895;SDS011;23733;53.254;10.430;2022-07-21T00:11:30;22.83;;;12.90;;
37895;SDS011;23733;53.254;10.430;2022-07-21T00:13:56;21.47;;;13.33;;
37895;SDS011;23733;53.254;10.430;2022-07-21T00:16:23;21.10;;;12.80;;
37895;SDS011;23733;53.254;10.430;2022-07-21T00:18:50;18.00;;;11.67;;
37895;SDS011;23733;53.254;10.430;2022-07-21T00:21:16;20.40;;;12.23;;
37895;SDS011;23733;53.254;10.430;2022-07-21T00:23:42;18.43;;;12.30;;
37895;SDS011;23733;53.254;10.430;2022-07-21T00:26:08;21.60;;;12.67;;
37895;SDS011;23733;53.254;10.430;2022-07-21T00:28:34;19.43;;;12.13;;
37895;SDS011;23733;53.254;10.430;2022-07-21T00:31:00;19.37;;;11.60;;
37895;SDS011;23733;53.254;10.430;2022-07-21T00:33:26;19.03;;;11.27;;
37895;SDS011;23733;53.254;10.430;2022-07-21T00:35:52;16.50;;;11.67;;
37895;SDS011;23733;53.254;10.430;2022-07-21T00:38:18;21.30;;;11.93;;
37895;SDS011;23733;53.254;10.430;2022-07-21T00:40:44;17.87;;;11.73;;
37895;SDS011;23733;53.254;10.430;2022-07-21T00:43:10;18.70;;;12.73;;
37895;SDS011;23733;53.254;10.430;2022-07-21T00:45:36;18.33;;;11.83;;
37895;SDS011;23733;53.254;10.430;2022-07-21T00:48:02;20.27;;;11.90;;
37895;SDS011;23733;53.254;10.430;2022-07-21T00:50:29;18.83;;;12.07;;
37895;SDS011;23733;53.254;10.430;2022-07-21T00:52:57;19.17;;;11.23;;
37895;SDS011;23733;53.254;10.430;2022-07-21T00:55:23;17.57;;;11.50;;
37895;SDS011;23733;53.254;10.430;2022-07-21T00:57:50;18.77;;;11.77;;
37895;SDS011;23733;53.254;10.430;2022-07-21T01:00:18;19.75;;;11.25;;
37895;SDS011;23733;53.254;10.430;2022-07-21T01:02:47;18.27;;;10.73;;
37895;SDS011;23733;53.254;10.430;2022-07-21T01:05:14;18.10;;;11.57;;
37895;SDS011;23733;53.254;10.430;2022-07-21T01:07:42;16.37;;;10.73;;
37895;SDS011;23733;53.254;10.430;2022-07-21T01:10:10;20.63;;;10.67;;
37895;SDS011;23733;53.254;10.430;2022-07-21T01:12:37;15.77;;;11.37;;
37895;SDS011;23733;53.254;10.430;2022-07-21T01:15:08;18.37;;;11.10;;
37895;SDS011;23733;53.254;10.430;2022-07-21T01:17:36;17.67;;;10.40;;
37895;SDS011;23733;53.254;10.430;2022-07-21T01:20:07;16.27;;;10.87;;
37895;SDS011;23733;53.254;10.430;2022-07-21T01:22:35;14.93;;;10.30;;
37895;SDS011;23733;53.254;10.430;2022-07-21T01:25:03;15.23;;;10.17;;
37895;SDS011;23733;53.254;10.430;2022-07-21T01:27:30;14.47;;;9.60;;
37895;SDS011;23733;53.254;10.430;2022-07-21T01:29:56;15.40;;;8.80;;
37895;SDS011;23733;53.254;10.430;2022-07-21T01:32:23;12.87;;;8.40;;
37895;SDS011;23733;53.254;10.430;2022-07-21T01:34:49;16.53;;;8.97;;
37895;SDS011;23733;53.254;10.430;2022-07-21T01:37:19;15.10;;;9.27;;
37895;SDS011;23733;53.254;10.430;2022-07-21T01:39:47;11.53;;;8.63;;
37895;SDS011;23733;53.254;10.430;2022-07-21T01:42:33;15.70;;;8.40;;
37895;SDS011;23733;53.254;10.430;2022-07-21T01:44:59;14.40;;;8.73;;
37895;SDS011;23733;53.254;10.430;2022-07-21T01:47:25;14.87;;;7.83;;
37895;SDS011;23733;53.254;10.430;2022-07-21T01:49:51;17.53;;;8.50;;
37895;SDS011;23733;53.254;10.430;2022-07-21T01:52:17;15.47;;;8.60;;
37895;SDS011;23733;53.254;10.430;2022-07-21T01:54:43;16.30;;;8.13;;
37895;SDS011;23733;53.254;10.430;2022-07-21T01:57:09;14.27;;;7.67;;
37895;SDS011;23733;53.254;10.430;2022-07-21T01:59:35;17.50;;;8.43;;
37895;SDS011;23733;53.254;10.430;2022-07-21T02:02:01;12.95;;;7.90;;
37895;SDS011;23733;53.254;10.430;2022-07-21T02:04:27;12.63;;;7.80;;
37895;SDS011;23733;53.254;10.430;2022-07-21T02:06:54;12.53;;;8.23;;
37895;SDS011;23733;53.254;10.430;2022-07-21T02:09:20;16.07;;;8.40;;
37895;SDS011;23733;53.254;10.430;2022-07-21T02:11:46;15.03;;;8.40;;
37895;SDS011;23733;53.254;10.430;2022-07-21T02:14:12;13.97;;;8.50;;
37895;SDS011;23733;53.254;10.430;2022-07-21T02:16:39;17.23;;;8.03;;
37895;SDS011;23733;53.254;10.430;2022-07-21T02:19:05;18.77;;;9.23;;
37895;SDS011;23733;53.254;10.430;2022-07-21T02:21:33;16.53;;;8.30;;
37895;SDS011;23733;53.254;10.430;2022-07-21T02:23:59;13.07;;;7.90;;
37895;SDS011;23733;53.254;10.430;2022-07-21T02:26:26;13.10;;;7.90;;
37895;SDS011;23733;53.254;10.430;2022-07-21T02:28:52;15.37;;;8.20;;
37895;SDS011;23733;53.254;10.430;2022-07-21T02:31:18;16.30;;;7.93;;
37895;SDS011;23733;53.254;10.430;2022-07-21T02:33:44;12.47;;;8.20;;
37895;SDS011;23733;53.254;10.430;2022-07-21T02:36:10;16.13;;;8.17;;
37895;SDS011;23733;53.254;10.430;2022-07-21T02:38:36;11.83;;;7.90;;
37895;SDS011;23733;53.254;10.430;2022-07-21T02:41:02;11.83;;;7.30;;
37895;SDS011;23733;53.254;10.430;2022-07-21T02:43:28;16.83;;;8.77;;
37895;SDS011;23733;53.254;10.430;2022-07-21T02:45:55;13.93;;;8.00;;
37895;SDS011;23733;53.254;10.430;2022-07-21T02:48:21;16.90;;;8.60;;
37895;SDS011;23733;53.254;10.430;2022-07-21T02:50:47;15.97;;;7.90;;
37895;SDS011;23733;53.254;10.430;2022-07-21T02:53:15;14.07;;;8.37;;
37895;SDS011;23733;53.254;10.430;2022-07-21T02:55:48;16.23;;;9.07;;
37895;SDS011;23733;53.254;10.430;2022-07-21T02:58:17;17.23;;;8.47;;
37895;SDS011;23733;53.254;10.430;2022-07-21T03:00:47;16.00;;;8.70;;
37895;SDS011;23733;53.254;10.430;2022-07-21T03:03:19;18.90;;;8.97;;
37895;SDS011;23733;53.254;10.430;2022-07-21T03:05:46;15.37;;;8.70;;
37895;SDS011;23733;53.254;10.430;2022-07-21T03:08:12;19.10;;;8.47;;
37895;SDS011;23733;53.254;10.430;2022-07-21T03:10:39;18.40;;;8.37;;
37895;SDS011;23733;53.254;10.430;2022-07-21T03:13:06;15.10;;;7.97;;
37895;SDS011;23733;53.254;10.430;2022-07-21T03:15:33;17.33;;;8.60;;
37895;SDS011;23733;53.254;10.430;2022-07-21T03:18:00;16.67;;;7.80;;
37895;SDS011;23733;53.254;10.430;2022-07-21T03:20:27;17.20;;;8.25;;
37895;SDS011;23733;53.254;10.430;2022-07-21T03:22:55;15.13;;;8.10;;
37895;SDS011;23733;53.254;10.430;2022-07-21T03:25:21;13.37;;;8.13;;
37895;SDS011;23733;53.254;10.430;2022-07-21T03:27:47;16.13;;;8.13;;
37895;SDS011;23733;53.254;10.430;2022-07-21T03:30:14;14.60;;;7.70;;
37895;SDS011;23733;53.254;10.430;2022-07-21T03:32:41;12.70;;;7.70;;
37895;SDS011;23733;53.254;10.430;2022-07-21T03:35:08;18.30;;;8.30;;
37895;SDS011;23733;53.254;10.430;2022-07-21T03:37:42;15.27;;;7.77;;
37895;SDS011;23733;53.254;10.430;2022-07-21T03:40:15;24.40;;;7.37;;
37895;SDS011;23733;53.254;10.430;2022-07-21T03:42:42;16.10;;;7.10;;
37895;SDS011;23733;53.254;10.430;2022-07-21T03:45:08;13.33;;;6.73;;
37895;SDS011;23733;53.254;10.430;2022-07-21T03:47:35;14.93;;;6.57;;
37895;SDS011;23733;53.254;10.430;2022-07-21T03:50:02;17.73;;;6.53;;
37895;SDS011;23733;53.254;10.430;2022-07-21T03:52:29;13.90;;;6.67;;
37895;SDS011;23733;53.254;10.430;2022-07-21T03:54:55;11.93;;;5.87;;
37895;SDS011;23733;53.254;10.430;2022-07-21T04:00:05;14.87;;;5.70;;
37895;SDS011;23733;53.254;10.430;2022-07-21T04:02:34;29.53;;;5.73;;
37895;SDS011;23733;53.254;10.430;2022-07-21T04:05:00;15.03;;;5.57;;
37895;SDS011;23733;53.254;10.430;2022-07-21T04:07:27;12.53;;;5.53;;
37895;SDS011;23733;53.254;10.430;2022-07-21T04:09:53;12.77;;;5.30;;
37895;SDS011;23733;53.254;10.430;2022-07-21T04:12:19;10.40;;;4.97;;
37895;SDS011;23733;53.254;10.430;2022-07-21T04:14:49;12.70;;;4.70;;
37895;SDS011;23733;53.254;10.430;2022-07-21T04:17:15;11.30;;;5.10;;
37895;SDS011;23733;53.254;10.430;2022-07-21T04:19:41;12.43;;;5.57;;
37895;SDS011;23733;53.254;10.430;2022-07-21T04:22:07;12.73;;;4.53;;
37895;SDS011;23733;53.254;10.430;2022-07-21T04:24:33;14.17;;;4.40;;
37895;SDS011;23733;53.254;10.430;2022-07-21T04:26:59;16.77;;;4.60;;
37895;SDS011;23733;53.254;10.430;2022-07-21T04:29:25;14.27;;;5.23;;
37895;SDS011;23733;53.254;10.430;2022-07-21T04:31:52;13.47;;;4.53;;
37895;SDS011;23733;53.254;10.430;2022-07-21T04:34:18;13.63;;;4.93;;
37895;SDS011;23733;53.254;10.430;2022-07-21T04:36:44;16.00;;;5.37;;
37895;SDS011;23733;53.254;10.430;2022-07-21T04:39:10;14.57;;;5.00;;
37895;SDS011;23733;53.254;10.430;2022-07-21T04:41:36;15.20;;;4.43;;
37895;SDS011;23733;53.254;10.430;2022-07-21T04:44:02;9.67;;;4.50;;
37895;SDS011;23733;53.254;10.430;2022-07-21T04:46:30;10.30;;;5.00;;
37895;SDS011;23733;53.254;10.430;2022-07-21T04:48:56;10.37;;;4.33;;
37895;SDS011;23733;53.254;10.430;2022-07-21T04:51:22;14.33;;;4.53;;
37895;SDS011;23733;53.254;10.430;2022-07-21T04:53:48;14.23;;;4.37;;
37895;SDS011;23733;53.254;10.430;2022-07-21T04:56:14;10.43;;;4.30;;
37895;SDS011;23733;53.254;10.430;2022-07-21T04:58:40;12.80;;;4.30;;
37895;SDS011;23733;53.254;10.430;2022-07-21T05:01:06;7.50;;;4.07;;
37895;SDS011;23733;53.254;10.430;2022-07-21T05:03:32;10.60;;;4.07;;
37895;SDS011;23733;53.254;10.430;2022-07-21T05:05:58;12.43;;;4.17;;
37895;SDS011;23733;53.254;10.430;2022-07-21T05:08:24;12.07;;;3.90;;
37895;SDS011;23733;53.254;10.430;2022-07-21T05:10:52;13.03;;;4.37;;
37895;SDS011;23733;53.254;10.430;2022-07-21T05:13:18;10.33;;;4.57;;
37895;SDS011;23733;53.254;10.430;2022-07-21T05:15:44;15.33;;;4.60;;
37895;SDS011;23733;53.254;10.430;2022-07-21T05:18:10;12.70;;;4.23;;
37895;SDS011;23733;53.254;10.430;2022-07-21T05:20:36;13.23;;;4.10;;
37895;SDS011;23733;53.254;10.430;2022-07-21T05:23:02;11.00;;;4.30;;
37895;SDS011;23733;53.254;10.430;2022-07-21T05:25:29;15.67;;;4.80;;
37895;SDS011;23733;53.254;10.430;2022-07-21T05:27:57;10.10;;;4.10;;
37895;SDS011;23733;53.254;10.430;2022-07-21T05:30:23;12.23;;;3.77;;
37895;SDS011;23733;53.254;10.430;2022-07-21T05:32:49;12.33;;;4.13;;
37895;SDS011;23733;53.254;10.430;2022-07-21T05:35:15;14.03;;;3.83;;
37895;SDS011;23733;53.254;10.430;2022-07-21T05:37:41;10.37;;;3.70;;
37895;SDS011;23733;53.254;10.430;2022-07-21T05:40:08;10.93;;;4.00;;
37895;SDS011;23733;53.254;10.430;2022-07-21T05:42:35;9.83;;;4.20;;
37895;SDS011;23733;53.254;10.430;2022-07-21T05:45:01;11.70;;;4.03;;
37895;SDS011;23733;53.254;10.430;2022-07-21T05:47:28;10.37;;;4.33;;
37895;SDS011;23733;53.254;10.430;2022-07-21T05:49:55;9.57;;;3.97;;
37895;SDS011;23733;53.254;10.430;2022-07-21T05:52:21;8.90;;;4.17;;
37895;SDS011;23733;53.254;10.430;2022-07-21T05:54:47;10.57;;;4.30;;
37895;SDS011;23733;53.254;10.430;2022-07-21T05:57:13;10.57;;;4.10;;
37895;SDS011;23733;53.254;10.430;2022-07-21T05:59:39;12.40;;;4.20;;
37895;SDS011;23733;53.254;10.430;2022-07-21T06:02:05;8.70;;;3.67;;
37895;SDS011;23733;53.254;10.430;2022-07-21T06:04:31;11.57;;;4.53;;
37895;SDS011;23733;53.254;10.430;2022-07-21T06:06:57;11.13;;;4.03;;
37895;SDS011;23733;53.254;10.430;2022-07-21T06:09:23;14.03;;;4.60;;
37895;SDS011;23733;53.254;10.430;2022-07-21T06:11:49;13.83;;;4.67;;
37895;SDS011;23733;53.254;10.430;2022-07-21T06:14:15;13.13;;;4.50;;
37895;SDS011;23733;53.254;10.430;2022-07-21T06:16:41;10.20;;;4.10;;
37895;SDS011;23733;53.254;10.430;2022-07-21T06:19:07;10.87;;;4.60;;
37895;SDS011;23733;53.254;10.430;2022-07-21T06:21:33;11.37;;;4.87;;
37895;SDS011;23733;53.254;10.430;2022-07-21T06:24:00;20.17;;;5.33;;
37895;SDS011;23733;53.254;10.430;2022-07-21T06:26:26;15.57;;;4.83;;
37895;SDS011;23733;53.254;10.430;2022-07-21T06:28:53;10.93;;;4.80;;
37895;SDS011;23733;53.254;10.430;2022-07-21T06:31:19;12.37;;;4.73;;
37895;SDS011;23733;53.254;10.430;2022-07-21T06:33:45;12.93;;;4.93;;
37895;SDS011;23733;53.254;10.430;2022-07-21T06:36:11;17.17;;;5.53;;
37895;SDS011;23733;53.254;10.430;2022-07-21T06:38:37;16.47;;;5.07;;
37895;SDS011;23733;53.254;10.430;2022-07-21T06:41:03;8.83;;;4.40;;
37895;SDS011;23733;53.254;10.430;2022-07-21T06:43:29;14.37;;;4.67;;
37895;SDS011;23733;53.254;10.430;2022-07-21T06:45:56;10.13;;;4.27;;
37895;SDS011;23733;53.254;10.430;2022-07-21T06:48:23;10.67;;;4.60;;
37895;SDS011;23733;53.254;10.430;2022-07-21T06:50:50;14.47;;;4.80;;
37895;SDS011;23733;53.254;10.430;2022-07-21T06:53:17;11.63;;;4.73;;
37895;SDS011;23733;53.254;10.430;2022-07-21T06:55:43;7.73;;;3.70;;
37895;SDS011;23733;53.254;10.430;2022-07-21T06:58:13;10.07;;;4.03;;
37895;SDS011;23733;53.254;10.430;2022-07-21T07:00:42;13.20;;;5.20;;
37895;SDS011;23733;53.254;10.430;2022-07-21T07:03:08;15.13;;;4.70;;
37895;SDS011;23733;53.254;10.430;2022-07-21T07:05:35;13.50;;;5.13;;
37895;SDS011;23733;53.254;10.430;2022-07-21T07:08:02;11.93;;;5.03;;
37895;SDS011;23733;53.254;10.430;2022-07-21T07:10:28;12.47;;;4.87;;
37895;SDS011;23733;53.254;10.430;2022-07-21T07:12:54;15.23;;;5.90;;
37895;SDS011;23733;53.254;10.430;2022-07-21T07:15:21;16.83;;;5.47;;
37895;SDS011;23733;53.254;10.430;2022-07-21T07:17:48;16.90;;;5.53;;
37895;SDS011;23733;53.254;10.430;2022-07-21T07:20:15;13.43;;;5.40;;
37895;SDS011;23733;53.254;10.430;2022-07-21T07:22:41;10.43;;;5.27;;
37895;SDS011;23733;53.254;10.430;2022-07-21T07:25:07;14.43;;;5.93;;
37895;SDS011;23733;53.254;10.430;2022-07-21T07:27:34;12.80;;;5.23;;
37895;SDS011;23733;53.254;10.430;2022-07-21T07:30:00;12.53;;;5.50;;
37895;SDS011;23733;53.254;10.430;2022-07-21T07:32:26;9.73;;;5.13;;
37895;SDS011;23733;53.254;10.430;2022-07-21T07:34:52;13.67;;;6.07;;
37895;SDS011;23733;53.254;10.430;2022-07-21T07:37:18;13.57;;;6.23;;
37895;SDS011;23733;53.254;10.430;2022-07-21T07:39:44;15.90;;;6.67;;
37895;SDS011;23733;53.254;10.430;2022-07-21T07:42:10;11.67;;;5.97;;
37895;SDS011;23733;53.254;10.430;2022-07-21T07:44:36;14.47;;;5.80;;
37895;SDS011;23733;53.254;10.430;2022-07-21T07:47:02;10.93;;;6.07;;
37895;SDS011;23733;53.254;10.430;2022-07-21T07:49:29;11.60;;;6.50;;
37895;SDS011;23733;53.254;10.430;2022-07-21T07:51:56;9.67;;;6.33;;
37895;SDS011;23733;53.254;10.430;2022-07-21T07:54:23;15.27;;;6.77;;
37895;SDS011;23733;53.254;10.430;2022-07-21T07:56:49;11.57;;;6.03;;
37895;SDS011;23733;53.254;10.430;2022-07-21T07:59:16;12.90;;;6.60;;
37895;SDS011;23733;53.254;10.430;2022-07-21T08:01:42;17.13;;;7.03;;
37895;SDS011;23733;53.254;10.430;2022-07-21T08:04:08;9.70;;;6.20;;
37895;SDS011;23733;53.254;10.430;2022-07-21T08:06:34;14.90;;;6.27;;
37895;SDS011;23733;53.254;10.430;2022-07-21T08:09:00;15.37;;;6.83;;
37895;SDS011;23733;53.254;10.430;2022-07-21T08:11:26;14.57;;;7.40;;
37895;SDS011;23733;53.254;10.430;2022-07-21T08:13:52;14.07;;;7.40;;
37895;SDS011;23733;53.254;10.430;2022-07-21T08:16:18;15.73;;;7.70;;
37895;SDS011;23733;53.254;10.430;2022-07-21T08:18:44;14.30;;;7.70;;
37895;SDS011;23733;53.254;10.430;2022-07-21T08:21:10;14.73;;;8.13;;
37895;SDS011;23733;53.254;10.430;2022-07-21T08:23:36;11.67;;;7.10;;
37895;SDS011;23733;53.254;10.430;2022-07-21T08:26:03;16.23;;;6.53;;
37895;SDS011;23733;53.254;10.430;2022-07-21T08:28:30;12.80;;;7.27;;
37895;SDS011;23733;53.254;10.430;2022-07-21T08:30:56;12.63;;;6.57;;
37895;SDS011;23733;53.254;10.430;2022-07-21T08:33:22;14.83;;;7.50;;
37895;SDS011;23733;53.254;10.430;2022-07-21T08:35:48;15.60;;;8.03;;
37895;SDS011;23733;53.254;10.430;2022-07-21T08:38:14;11.43;;;7.10;;
37895;SDS011;23733;53.254;10.430;2022-07-21T08:40:41;14.57;;;8.70;;
37895;SDS011;23733;53.254;10.430;2022-07-21T08:43:09;16.00;;;8.40;;
37895;SDS011;23733;53.254;10.430;2022-07-21T08:45:38;14.33;;;8.20;;
37895;SDS011;23733;53.254;10.430;2022-07-21T08:48:05;15.80;;;9.13;;
37895;SDS011;23733;53.254;10.430;2022-07-21T08:50:33;17.77;;;8.63;;
37895;SDS011;23733;53.254;10.430;2022-07-21T08:53:01;18.67;;;9.00;;
37895;SDS011;23733;53.254;10.430;2022-07-21T08:55:31;18.33;;;9.33;;
37895;SDS011;23733;53.254;10.430;2022-07-21T08:57:58;14.53;;;8.63;;
37895;SDS011;23733;53.254;10.430;2022-07-21T09:00:25;17.80;;;9.90;;
37895;SDS011;23733;53.254;10.430;2022-07-21T09:03:07;19.60;;;10.33;;
37895;SDS011;23733;53.254;10.430;2022-07-21T09:05:34;20.13;;;9.47;;
37895;SDS011;23733;53.254;10.430;2022-07-21T09:08:01;15.17;;;10.23;;
37895;SDS011;23733;53.254;10.430;2022-07-21T09:10:29;18.93;;;9.53;;
37895;SDS011;23733;53.254;10.430;2022-07-21T09:13:00;20.33;;;10.47;;
37895;SDS011;23733;53.254;10.430;2022-07-21T09:15:29;19.27;;;10.67;;
37895;SDS011;23733;53.254;10.430;2022-07-21T09:18:03;20.20;;;10.73;;
37895;SDS011;23733;53.254;10.430;2022-07-21T09:20:32;18.10;;;10.27;;
37895;SDS011;23733;53.254;10.430;2022-07-21T09:23:02;18.13;;;11.07;;
37895;SDS011;23733;53.254;10.430;2022-07-21T09:25:40;17.30;;;10.90;;
37895;SDS011;23733;53.254;10.430;2022-07-21T09:28:09;17.87;;;11.77;;
37895;SDS011;23733;53.254;10.430;2022-07-21T09:30:49;24.37;;;11.73;;
37895;SDS011;23733;53.254;10.430;2022-07-21T09:35:51;16.23;;;10.80;;
37895;SDS011;23733;53.254;10.430;2022-07-21T09:38:38;22.60;;;10.50;;
37895;SDS011;23733;53.254;10.430;2022-07-21T09:41:12;19.77;;;9.53;;
37895;SDS011;23733;53.254;10.430;2022-07-21T09:46:11;20.50;;;10.27;;
37895;SDS011;23733;53.254;10.430;2022-07-21T09:48:40;18.37;;;10.87;;
37895;SDS011;23733;53.254;10.430;2022-07-21T09:51:27;14.67;;;10.90;;
37895;SDS011;23733;53.254;10.430;2022-07-21T09:54:01;16.93;;;10.30;;
37895;SDS011;23733;53.254;10.430;2022-07-21T09:56:45;17.00;;;10.00;;
37895;SDS011;23733;53.254;10.430;2022-07-21T09:59:13;15.37;;;10.20;;
37895;SDS011;23733;53.254;10.430;2022-07-21T10:01:39;17.90;;;10.63;;
37895;SDS011;23733;53.254;10.430;2022-07-21T10:04:06;16.70;;;11.00;;
37895;SDS011;23733;53.254;10.430;2022-07-21T10:06:34;16.20;;;9.57;;
37895;SDS011;23733;53.254;10.430;2022-07-21T10:09:03;13.07;;;8.70;;
37895;SDS011;23733;53.254;10.430;2022-07-21T10:11:30;19.33;;;10.83;;
37895;SDS011;23733;53.254;10.430;2022-07-21T10:13:57;16.33;;;10.60;;
37895;SDS011;23733;53.254;10.430;2022-07-21T10:16:23;16.50;;;10.87;;
37895;SDS011;23733;53.254;10.430;2022-07-21T10:19:02;15.70;;;10.33;;
37895;SDS011;23733;53.254;10.430;2022-07-21T10:21:58;15.17;;;9.67;;
37895;SDS011;23733;53.254;10.430;2022-07-21T10:24:30;18.53;;;10.83;;
37895;SDS011;23733;53.254;10.430;2022-07-21T10:27:00;15.93;;;9.73;;
37895;SDS011;23733;53.254;10.430;2022-07-21T10:29:48;17.37;;;10.37;;
37895;SDS011;23733;53.254;10.430;2022-07-21T10:32:23;12.20;;;9.33;;
37895;SDS011;23733;53.254;10.430;2022-07-21T10:34:51;12.97;;;9.03;;
37895;SDS011;23733;53.254;10.430;2022-07-21T10:38:01;14.83;;;9.53;;
37895;SDS011;23733;53.254;10.430;2022-07-21T10:42:44;14.43;;;9.27;;
37895;SDS011;23733;53.254;10.430;2022-07-21T10:45:34;13.13;;;8.30;;
37895;SDS011;23733;53.254;10.430;2022-07-21T10:48:02;13.53;;;7.67;;
37895;SDS011;23733;53.254;10.430;2022-07-21T10:50:37;9.83;;;7.30;;
37895;SDS011;23733;53.254;10.430;2022-07-21T10:53:08;12.03;;;7.50;;
37895;SDS011;23733;53.254;10.430;2022-07-21T10:55:38;13.50;;;7.03;;
37895;SDS011;23733;53.254;10.430;2022-07-21T11:00:48;8.47;;;6.67;;
37895;SDS011;23733;53.254;10.430;2022-07-21T11:03:27;12.43;;;7.53;;
37895;SDS011;23733;53.254;10.430;2022-07-21T11:06:15;11.17;;;7.60;;
37895;SDS011;23733;53.254;10.430;2022-07-21T11:08:43;10.87;;;7.63;;
37895;SDS011;23733;53.254;10.430;2022-07-21T11:11:13;10.87;;;8.07;;
37895;SDS011;23733;53.254;10.430;2022-07-21T11:16:56;15.43;;;7.87;;
37895;SDS011;23733;53.254;10.430;2022-07-21T11:21:55;12.37;;;8.17;;
37895;SDS011;23733;53.254;10.430;2022-07-21T11:24:24;12.37;;;7.80;;
37895;SDS011;23733;53.254;10.430;2022-07-21T11:26:55;10.10;;;6.97;;
37895;SDS011;23733;53.254;10.430;2022-07-21T11:29:22;9.27;;;7.13;;
37895;SDS011;23733;53.254;10.430;2022-07-21T11:31:49;9.87;;;7.03;;
37895;SDS011;23733;53.254;10.430;2022-07-21T11:34:15;13.77;;;7.47;;
37895;SDS011;23733;53.254;10.430;2022-07-21T11:36:41;9.13;;;6.33;;
37895;SDS011;23733;53.254;10.430;2022-07-21T11:39:09;11.63;;;7.33;;
37895;SDS011;23733;53.254;10.430;2022-07-21T11:41:36;10.77;;;6.67;;
37895;SDS011;23733;53.254;10.430;2022-07-21T11:44:04;8.90;;;5.93;;
37895;SDS011;23733;53.254;10.430;2022-07-21T11:46:47;7.67;;;5.13;;
37895;SDS011;23733;53.254;10.430;2022-07-21T11:49:15;6.63;;;5.00;;
37895;SDS011;23733;53.254;10.430;2022-07-21T11:51:52;7.90;;;4.90;;
37895;SDS011;23733;53.254;10.430;2022-07-21T11:56:58;9.57;;;5.17;;
37895;SDS011;23733;53.254;10.430;2022-07-21T11:59:25;10.63;;;5.30;;
37895;SDS011;23733;53.254;10.430;2022-07-21T12:01:53;11.50;;;4.53;;
37895;SDS011;23733;53.254;10.430;2022-07-21T12:04:32;6.97;;;4.70;;
37895;SDS011;23733;53.254;10.430;2022-07-21T12:07:05;6.17;;;4.07;;
37895;SDS011;23733;53.254;10.430;2022-07-21T12:09:36;6.67;;;3.87;;
37895;SDS011;23733;53.254;10.430;2022-07-21T12:12:03;5.30;;;4.00;;
37895;SDS011;23733;53.254;10.430;2022-07-21T12:14:39;5.37;;;3.50;;
37895;SDS011;23733;53.254;10.430;2022-07-21T12:17:05;6.57;;;3.70;;
37895;SDS011;23733;53.254;10.430;2022-07-21T12:19:31;3.80;;;2.87;;
37895;SDS011;23733;53.254;10.430;2022-07-21T12:21:57;7.83;;;3.40;;
37895;SDS011;23733;53.254;10.430;2022-07-21T12:24:34;4.43;;;3.00;;
37895;SDS011;23733;53.254;10.430;2022-07-21T12:27:17;4.43;;;3.10;;
37895;SDS011;23733;53.254;10.430;2022-07-21T12:29:44;3.50;;;2.63;;
37895;SDS011;23733;53.254;10.430;2022-07-21T12:32:10;6.00;;;2.40;;
37895;SDS011;23733;53.254;10.430;2022-07-21T12:34:52;5.37;;;2.90;;
37895;SDS011;23733;53.254;10.430;2022-07-21T12:37:19;5.10;;;2.60;;
37895;SDS011;23733;53.254;10.430;2022-07-21T12:40:01;4.80;;;2.73;;
37895;SDS011;23733;53.254;10.430;2022-07-21T12:42:33;5.77;;;2.90;;
37895;SDS011;23733;53.254;10.430;2022-07-21T12:47:43;3.37;;;2.40;;
37895;SDS011;23733;53.254;10.430;2022-07-21T12:50:29;5.70;;;2.80;;
37895;SDS011;23733;53.254;10.430;2022-07-21T12:52:55;3.50;;;2.50;;
37895;SDS011;23733;53.254;10.430;2022-07-21T12:55:21;5.23;;;2.53;;
37895;SDS011;23733;53.254;10.430;2022-07-21T12:57:47;4.40;;;2.53;;
37895;SDS011;23733;53.254;10.430;2022-07-21T13:00:13;3.60;;;2.30;;
37895;SDS011;23733;53.254;10.430;2022-07-21T13:02:46;3.13;;;2.47;;
37895;SDS011;23733;53.254;10.430;2022-07-21T13:05:16;3.77;;;2.43;;
37895;SDS011;23733;53.254;10.430;2022-07-21T13:07:43;3.33;;;2.30;;
37895;SDS011;23733;53.254;10.430;2022-07-21T13:10:09;3.50;;;2.30;;
37895;SDS011;23733;53.254;10.430;2022-07-21T13:12:35;2.90;;;2.23;;
37895;SDS011;23733;53.254;10.430;2022-07-21T13:15:02;3.53;;;2.40;;
37895;SDS011;23733;53.254;10.430;2022-07-21T13:17:29;6.13;;;2.60;;
37895;SDS011;23733;53.254;10.430;2022-07-21T13:19:55;3.23;;;2.10;;
37895;SDS011;23733;53.254;10.430;2022-07-21T13:22:21;3.17;;;2.03;;
37895;SDS011;23733;53.254;10.430;2022-07-21T13:24:47;6.30;;;2.55;;
37895;SDS011;23733;53.254;10.430;2022-07-21T13:27:13;3.83;;;2.30;;
37895;SDS011;23733;53.254;10.430;2022-07-21T13:29:39;2.97;;;2.13;;
37895;SDS011;23733;53.254;10.430;2022-07-21T13:32:06;3.73;;;2.20;;
37895;SDS011;23733;53.254;10.430;2022-07-21T13:34:33;2.77;;;2.27;;
37895;SDS011;23733;53.254;10.430;2022-07-21T13:36:59;4.20;;;2.20;;
37895;SDS011;23733;53.254;10.430;2022-07-21T13:39:26;2.90;;;2.20;;
37895;SDS011;23733;53.254;10.430;2022-07-21T13:41:54;3.63;;;2.20;;
37895;SDS011;23733;53.254;10.430;2022-07-21T13:44:21;2.80;;;2.40;;
37895;SDS011;23733;53.254;10.430;2022-07-21T13:46:48;3.47;;;2.20;;
37895;SDS011;23733;53.254;10.430;2022-07-21T13:49:14;3.43;;;2.23;;
37895;SDS011;23733;53.254;10.430;2022-07-21T13:51:40;4.67;;;2.10;;
37895;SDS011;23733;53.254;10.430;2022-07-21T13:54:06;2.93;;;1.93;;
37895;SDS011;23733;53.254;10.430;2022-07-21T13:56:32;3.53;;;2.10;;
37895;SDS011;23733;53.254;10.430;2022-07-21T13:58:58;2.63;;;1.80;;
37895;SDS011;23733;53.254;10.430;2022-07-21T14:01:24;3.27;;;2.10;;
37895;SDS011;23733;53.254;10.430;2022-07-21T14:03:51;3.20;;;1.70;;
37895;SDS011;23733;53.254;10.430;2022-07-21T14:06:17;3.67;;;1.60;;
37895;SDS011;23733;53.254;10.430;2022-07-21T14:08:43;2.07;;;1.83;;
37895;SDS011;23733;53.254;10.430;2022-07-21T14:11:10;2.27;;;1.67;;
37895;SDS011;23733;53.254;10.430;2022-07-21T14:13:39;1.63;;;1.53;;
37895;SDS011;23733;53.254;10.430;2022-07-21T14:16:05;1.50;;;1.40;;
37895;SDS011;23733;53.254;10.430;2022-07-21T14:18:31;2.43;;;1.77;;
37895;SDS011;23733;53.254;10.430;2022-07-21T14:20:58;2.23;;;1.50;;
37895;SDS011;23733;53.254;10.430;2022-07-21T14:23:24;1.73;;;1.63;;
37895;SDS011;23733;53.254;10.430;2022-07-21T14:25:50;2.43;;;1.70;;
37895;SDS011;23733;53.254;10.430;2022-07-21T14:28:18;2.00;;;1.70;;
37895;SDS011;23733;53.254;10.430;2022-07-21T14:30:44;3.53;;;1.70;;
37895;SDS011;23733;53.254;10.430;2022-07-21T14:33:11;4.03;;;3.20;;
37895;SDS011;23733;53.254;10.430;2022-07-21T14:35:37;2.87;;;2.50;;
37895;SDS011;23733;53.254;10.430;2022-07-21T14:38:03;2.07;;;1.87;;
37895;SDS011;23733;53.254;10.430;2022-07-21T14:40:29;3.00;;;2.20;;
37895;SDS011;23733;53.254;10.430;2022-07-21T14:42:55;3.40;;;1.90;;
37895;SDS011;23733;53.254;10.430;2022-07-21T14:45:22;3.20;;;2.10;;
37895;SDS011;23733;53.254;10.430;2022-07-21T14:47:49;3.73;;;3.10;;
37895;SDS011;23733;53.254;10.430;2022-07-21T14:50:17;5.35;;;2.22;;
37895;SDS011;23733;53.254;10.430;2022-07-21T14:52:43;5.23;;;2.80;;